Latest Weather Observations for Holmes Reef

IDQ60801

Issued at 7:43 pm EST Friday 26 February 2021 (issued every 10 minutes, with the page automatically refreshed every 10 minutes)

About weather observations | Map of weather stations | Latest weather observations for QLD | Other Formats
Station Details ID: 200732 Name: HOLMES REEF Lat: -16.47 Lon: 147.87 Height: 1.9 m
Data from the previous 72 hours. | See also: Recent months at Holmes Reef
Date/Time
EST
Temp
°C
App
Temp
°C
Dew
Point
°C
Rel
Hum
%
Delta-T
°C
Wind Press
QNH
hPa
Press
MSL
hPa
Rain since
9am
mm
Dir  Spd
km/h
Gust
km/h
Spd
kts
Gust
kts
26/07:30pm 27.4 - - - - ESE 22 26 12 14 1004.4 1004.3 -
26/07:00pm 27.1 - - - - E 22 26 12 14 1004.0 1003.9 -
26/06:30pm 27.0 - - - - E 22 26 12 14 1003.8 1003.7 -
26/06:00pm 26.6 - - - - E 20 24 11 13 1003.6 1003.5 -
26/05:30pm 26.4 - - - - ENE 17 20 9 11 1003.2 1003.1 -
26/05:00pm 26.4 - - - - ENE 22 26 12 14 1002.8 1002.7 -
26/04:30pm 26.3 - - - - ENE 26 30 14 16 1003.0 1002.9 -
26/04:00pm 26.2 - - - - ENE 26 32 14 17 1003.0 1002.9 -
26/03:30pm 27.0 - - - - ENE 22 28 12 15 1003.0 1002.9 -
26/03:00pm 26.5 - - - - E 17 20 9 11 1002.9 1002.8 -
26/02:30pm 25.8 - - - - E 9 13 5 7 1003.2 1003.1 -
26/02:00pm 25.4 - - - - E 11 15 6 8 1003.3 1003.2 -
26/01:30pm 25.3 - - - - ENE 11 13 6 7 1003.8 1003.7 -
26/01:00pm 25.0 - - - - ENE 24 33 13 18 1004.4 1004.3 -
26/12:37pm 25.6 - - - - ENE 33 52 18 28 1004.7 1004.6 -
26/12:30pm 27.0 - - - - E 20 28 11 15 1004.7 1004.6 -
26/12:00pm 27.2 - - - - ESE 15 17 8 9 1004.9 1004.8 -
26/11:30am 26.9 - - - - SE 19 20 10 11 1005.2 1005.1 -
26/11:00am 27.4 - - - - ESE 15 17 8 9 1005.5 1005.4 -
26/10:30am 27.3 - - - - ESE 20 24 11 13 1005.7 1005.6 -
26/10:00am 27.3 - - - - E 28 32 15 17 1005.7 1005.6 -
26/09:30am 26.5 - - - - E 33 39 18 21 1005.7 1005.6 -
26/09:11am 26.8 - - - - ESE 33 43 18 23 1005.9 - -
26/09:10am 27.0 - - - - ESE 20 37 11 20 1005.7 1005.6 -
26/09:00am 27.0 - - - - ESE 11 15 6 8 1005.6 1005.5 -
26/08:30am 26.6 - - - - SE 13 17 7 9 1005.5 1005.4 -
26/08:00am 25.7 - - - - SE 15 19 8 10 1005.0 1004.9 -
26/07:30am 24.8 - - - - ESE 30 35 16 19 1005.3 1005.2 -
26/07:00am 25.7 - - - - E 28 46 15 25 1004.6 1004.5 -
26/06:30am 25.9 - - - - NNE 28 33 15 18 1004.2 1004.1 -
26/06:13am 26.5 - - - - ESE 19 44 10 24 1003.8 1003.7 -
26/06:00am 26.6 - - - - SE 13 22 7 12 1003.6 1003.5 -
26/05:30am 26.3 - - - - E 2 6 1 3 1003.5 1003.4 -
26/05:00am 26.5 - - - - ENE 13 19 7 10 1003.3 1003.2 -
26/04:30am 27.0 - - - - E 24 35 13 19 1003.0 1002.9 -
26/04:00am 27.8 - - - - E 20 24 11 13 1002.9 1002.8 -
26/03:30am 27.9 - - - - E 20 24 11 13 1002.9 1002.8 -
26/03:00am 27.4 - - - - E 20 24 11 13 1002.8 1002.7 -
26/02:30am 27.2 - - - - E 20 22 11 12 1003.1 1003.0 -
26/02:00am 26.9 - - - - ENE 20 22 11 12 1003.4 1003.3 -
26/01:30am 26.1 - - - - NE 30 35 16 19 1003.9 1003.8 -
26/01:00am 27.0 - - - - NE 35 44 19 24 1004.4 1004.3 -
26/12:54am 27.0 - - - - ENE 33 44 18 24 1004.5 1004.4 -
26/12:30am 28.2 - - - - E 28 30 15 16 1004.8 1004.7 -
26/12:00am 28.2 - - - - E 24 30 13 16 1005.3 1005.2 -
 
Date/Time
EST
Temp
°C
App
Temp
°C
Dew
Point
°C
Rel
Hum
%
Delta-T
°C
Wind Press
QNH
hPa
Press
MSL
hPa
Rain since
9am
mm
Dir  Spd
km/h
Gust
km/h
Spd
kts
Gust
kts
25/11:30pm 28.3 - - - - E 22 26 12 14 1005.7 1005.6 -
25/11:00pm 27.5 - - - - E 24 28 13 15 1005.8 1005.7 -
25/10:30pm 28.1 - - - - E 24 28 13 15 1005.9 1005.8 -
25/10:00pm 28.2 - - - - E 20 24 11 13 1006.0 1005.9 -
25/09:30pm 28.2 - - - - E 22 26 12 14 1005.8 1005.7 -
25/09:00pm 28.2 - - - - E 22 26 12 14 1005.6 1005.5 -
25/08:30pm 28.1 - - - - E 20 24 11 13 1005.3 1005.2 -
25/08:00pm 28.1 - - - - E 19 20 10 11 1005.1 1005.0 -
25/07:30pm 27.7 - - - - E 17 20 9 11 1005.0 1004.9 -
25/07:00pm 27.3 - - - - E 17 20 9 11 1004.9 1004.8 -
25/06:30pm 27.3 - - - - E 15 19 8 10 1004.6 1004.5 -
25/06:00pm 27.0 - - - - E 20 24 11 13 1004.2 1004.1 -
25/05:30pm 27.0 - - - - ENE 22 26 12 14 1004.0 1003.9 -
25/05:00pm 26.7 - - - - ENE 15 19 8 10 1004.0 1003.9 -
25/04:30pm 26.1 - - - - NE 9 13 5 7 1003.7 1003.6 -
25/04:00pm 25.8 - - - - NNE 20 26 11 14 1003.9 1003.8 -
25/03:30pm 25.6 - - - - N 32 33 17 18 1004.0 1003.9 -
25/03:00pm 27.2 - - - - NE 32 41 17 22 1004.1 1004.0 -
25/02:51pm 26.7 - - - - ENE 33 43 18 23 1004.0 1003.9 -
25/02:38pm 26.0 - - - - ESE 32 44 17 24 1004.0 - -
25/02:30pm 26.3 - - - - E 37 44 20 24 1003.9 1003.8 -
25/02:17pm 26.4 - - - - ENE 15 41 8 22 1003.8 1003.7 -
25/02:00pm 26.7 - - - - NE 9 11 5 6 1004.0 1003.9 -
25/01:30pm 26.1 - - - - NNE 20 24 11 13 1004.6 1004.5 -
25/01:00pm 26.1 - - - - ENE 13 17 7 9 1005.0 1004.9 -
25/12:30pm 25.6 - - - - ENE 19 24 10 13 1005.7 1005.6 -
25/12:00pm 25.9 - - - - E 28 33 15 18 1006.0 1005.9 -
25/11:30am 25.6 - - - - E 28 32 15 17 1006.3 1006.2 -
25/11:05am 25.9 - - - - ENE 41 59 22 32 1006.5 1006.4 -
25/11:00am 25.9 - - - - E 43 59 23 32 1006.4 1006.3 -
25/10:30am 27.2 - - - - E 30 39 16 21 1006.5 1006.4 -
25/10:00am 27.8 - - - - NE 24 26 13 14 1006.5 1006.4 -
25/09:30am 27.7 - - - - ENE 22 28 12 15 1006.5 1006.4 -
25/09:00am 27.7 - - - - ENE 24 30 13 16 1006.2 1006.1 -
25/08:30am 26.5 - - - - E 28 33 15 18 1006.1 1006.0 -
25/08:00am 26.9 - - - - E 22 30 12 16 1006.0 1005.9 -
25/07:30am 26.0 - - - - ESE 20 26 11 14 1005.7 1005.6 -
25/07:00am 25.4 - - - - E 33 39 18 21 1005.2 1005.1 -
25/06:30am 26.7 - - - - E 33 37 18 20 1004.8 1004.7 -
25/06:15am 26.4 - - - - E 30 41 16 22 1004.7 1004.6 -
25/06:00am 27.6 - - - - E 19 22 10 12 1004.7 1004.6 -
25/05:30am 27.4 - - - - ENE 20 26 11 14 1004.4 1004.3 -
25/05:00am 26.5 - - - - ESE 15 17 8 9 1004.0 1003.9 -
25/04:30am 26.0 - - - - ESE 19 20 10 11 1004.1 1004.0 -
25/04:00am 25.2 - - - - E 24 30 13 16 1004.1 1004.0 -
25/03:30am 25.2 - - - - ENE 20 30 11 16 1004.1 1004.0 -
25/03:00am 26.7 - - - - NE 20 24 11 13 1004.0 1003.9 -
25/02:30am 26.6 - - - - ENE 28 33 15 18 1004.1 1004.0 -
25/02:00am 26.9 - - - - ENE 30 35 16 19 1004.4 1004.3 -
25/01:30am 26.6 - - - - ENE 35 41 19 22 1005.1 1005.0 -
25/01:00am 27.3 - - - - ENE 39 48 21 26 1005.4 1005.3 -
25/12:30am 26.3 - - - - ENE 39 50 21 27 1005.7 1005.6 -
25/12:03am 26.8 - - - - ENE 43 52 23 28 1006.2 - -
25/12:00am 27.4 - - - - E 43 52 23 28 1005.9 1005.8 -
 
Date/Time
EST
Temp
°C
App
Temp
°C
Dew
Point
°C
Rel
Hum
%
Delta-T
°C
Wind Press
QNH
hPa
Press
MSL
hPa
Rain since
9am
mm
Dir  Spd
km/h
Gust
km/h
Spd
kts
Gust
kts
24/11:30pm 27.2 - - - - ESE 41 46 22 25 1006.1 1006.0 -
24/11:00pm 27.6 - - - - ESE 39 46 21 25 1006.6 1006.5 -
24/10:30pm 26.7 - - - - ESE 33 41 18 22 1006.9 1006.8 -
24/10:00pm 25.0 - - - - ESE 48 59 26 32 1007.1 1007.0 -
24/09:54pm 26.6 - - - - ESE 39 59 21 32 1006.8 1006.7 -
24/09:53pm 27.4 - - - - ESE 37 54 20 29 1006.8 1006.7 -
24/09:30pm 27.7 - - - - ESE 32 35 17 19 1006.8 1006.7 -
24/09:00pm 27.3 - - - - ESE 43 52 23 28 1006.7 1006.6 -
24/08:30pm 28.1 - - - - E 33 41 18 22 1006.6 1006.5 -
24/08:00pm 27.9 - - - - E 37 44 20 24 1006.5 1006.4 -
24/07:30pm 28.1 - - - - E 37 44 20 24 1006.1 1006.0 -
24/07:00pm 28.1 - - - - E 30 39 16 21 1005.6 1005.5 -
24/06:30pm 28.9 - - - - SE 33 37 18 20 1005.5 1005.4 -
24/06:00pm 29.0 - - - - ESE 33 39 18 21 1005.3 1005.2 -
24/05:30pm 29.0 - - - - SE 33 39 18 21 1005.2 1005.1 -
24/05:12pm 28.2 - - - - ESE 33 43 18 23 1005.0 1004.9 -
24/05:11pm 28.3 - - - - SE 37 43 20 23 1005.1 - -
24/05:00pm 28.9 - - - - ESE 28 35 15 19 1004.8 1004.7 -
24/04:39pm 28.8 - - - - SE 32 50 17 27 1004.7 1004.6 -
24/04:30pm 28.9 - - - - SE 32 35 17 19 1004.7 1004.6 -
24/04:00pm 28.6 - - - - SE 30 33 16 18 1004.7 1004.6 -
24/03:30pm 29.1 - - - - ESE 28 32 15 17 1004.9 1004.8 -
24/03:00pm 28.1 - - - - E 28 37 15 20 1005.1 1005.0 -
24/02:30pm 28.2 - - - - SE 26 32 14 17 1005.1 1005.0 -
24/02:15pm 25.7 - - - - SE 33 52 18 28 1005.6 1005.5 -
24/02:00pm 27.4 - - - - SE 41 54 22 29 1005.6 1005.5 -
24/01:53pm 28.0 - - - - SE 32 54 17 29 1005.6 1005.5 -
24/01:30pm 29.3 - - - - ESE 26 30 14 16 1005.6 1005.5 -
24/01:00pm 29.3 - - - - ESE 30 33 16 18 1005.9 1005.8 -
24/12:30pm 29.3 - - - - ESE 30 35 16 19 1006.3 1006.2 -
24/12:00pm 29.3 - - - - ESE 30 33 16 18 1006.9 1006.8 -
24/11:30am 29.2 - - - - ESE 32 35 17 19 1007.1 1007.0 -
24/11:00am 29.3 - - - - ESE 30 33 16 18 1007.3 1007.2 -
24/10:30am 29.1 - - - - ESE 26 32 14 17 1007.7 1007.6 -
24/10:00am 29.2 - - - - ESE 28 33 15 18 1007.7 1007.6 -
24/09:30am 29.2 - - - - ESE 26 30 14 16 1007.8 1007.7 -
24/09:00am 29.1 - - - - ESE 24 32 13 17 1007.6 1007.5 -
24/08:30am 29.1 - - - - ESE 28 32 15 17 1007.2 1007.1 -
24/08:00am 29.2 - - - - ESE 28 30 15 16 1006.9 1006.8 -
24/07:30am 29.1 - - - - ESE 24 28 13 15 1006.7 1006.6 -
24/07:00am 29.1 - - - - SE 28 32 15 17 1006.4 1006.3 -
24/06:30am 28.9 - - - - ESE 26 32 14 17 1005.8 1005.7 -
24/06:00am 28.8 - - - - E 26 32 14 17 1005.2 1005.1 -
24/05:30am 28.9 - - - - E 26 30 14 16 1004.9 1004.8 -
24/05:00am 28.8 - - - - E 24 26 13 14 1004.7 1004.6 -
24/04:30am 28.8 - - - - E 22 26 12 14 1004.7 1004.6 -
24/04:00am 28.9 - - - - E 22 24 12 13 1004.7 1004.6 -
24/03:30am 29.0 - - - - ESE 17 24 9 13 1004.8 1004.7 -
24/03:00am 29.1 - - - - E 19 20 10 11 1005.1 1005.0 -
24/02:30am 29.1 - - - - E 19 22 10 12 1005.5 1005.4 -
24/02:00am 29.1 - - - - E 15 19 8 10 1005.7 1005.6 -
24/01:30am 29.2 - - - - ESE 15 19 8 10 1006.2 1006.1 -
24/01:00am 29.2 - - - - E 17 20 9 11 1006.5 1006.4 -
24/12:30am 29.3 - - - - E 19 22 10 12 1007.0 1006.9 -
24/12:00am 29.3 - - - - E 15 17 8 9 1007.1 1007.0 -
 
Date/Time
EST
Temp
°C
App
Temp
°C
Dew
Point
°C
Rel
Hum
%
Delta-T
°C
Wind Press
QNH
hPa
Press
MSL
hPa
Rain since
9am
mm
Dir  Spd
km/h
Gust
km/h
Spd
kts
Gust
kts
23/11:30pm 29.3 - - - - E 17 17 9 9 1007.2 1007.1 -
23/11:00pm 29.2 - - - - E 13 15 7 8 1007.0 1006.9 -
23/10:30pm 29.3 - - - - ESE 13 15 7 8 1007.1 1007.0 -
23/10:00pm 29.3 - - - - ESE 11 15 6 8 1007.0 1006.9 -
23/09:30pm 29.3 - - - - ESE 13 15 7 8 1006.9 1006.8 -
23/09:00pm 29.3 - - - - ESE 13 15 7 8 1006.5 1006.4 -
23/08:30pm 29.4 - - - - SE 11 13 6 7 1006.1 1006.0 -
23/08:00pm 29.4 - - - - ESE 11 11 6 6 1005.7 1005.6 -

Other formats

Comma delimited format used in spreadsheet applications
http://www.bom.gov.au/fwo/IDQ60801/IDQ60801.94289.axf

JavaScript Object Notation format (JSON) in row-major order
http://www.bom.gov.au/fwo/IDQ60801/IDQ60801.94289.json

Data quality

Most of these data are generated automatically and are frequently updated. Quality checks on data are not normally performed. It is possible for incorrect values to appear. Refer to information at About Latest Weather Observations and please check the disclaimer before using these data.